Terminal Aerodrome Forecast
Issued by NWS Wakefield, VA

Home | Current Version | Previous Version | Text Only | Print | Product List | Glossary On
Versions: 1 2 3 4 5 6 7 8 9 10 11 12 13 14 15 16 17 18
132
FTUS41 KAKQ 160520
TAFRIC
TAF
KRIC 160520Z 1606/1706 00000KT 6SM -RA OVC035
     FM161200 00000KT P6SM VCSH OVC025
     FM161800 00000KT P6SM OVC020
     FM170100 VRB03KT P6SM OVC030=

USA.gov is the U.S. government's official web portal to all federal, state and local government web resources and services.